sensor_id;sensor_type;location;lat;lon;timestamp;temperature;humidity
36372;DHT22;22398;51.346;12.372;2024-03-08T00:02:10;0.50;88.20
36372;DHT22;22398;51.346;12.372;2024-03-08T00:07:12;0.40;88.30
36372;DHT22;22398;51.346;12.372;2024-03-08T00:12:15;0.30;88.60
36372;DHT22;22398;51.346;12.372;2024-03-08T00:17:17;0.40;89.10
36372;DHT22;22398;51.346;12.372;2024-03-08T00:22:19;0.30;89.30
36372;DHT22;22398;51.346;12.372;2024-03-08T00:27:20;0.30;89.60
36372;DHT22;22398;51.346;12.372;2024-03-08T00:32:23;0.30;90.00
36372;DHT22;22398;51.346;12.372;2024-03-08T00:37:26;0.20;90.10
36372;DHT22;22398;51.346;12.372;2024-03-08T00:42:27;0.20;90.30
36372;DHT22;22398;51.346;12.372;2024-03-08T00:47:30;0.20;90.40
36372;DHT22;22398;51.346;12.372;2024-03-08T00:52:32;0.10;90.60
36372;DHT22;22398;51.346;12.372;2024-03-08T00:57:36;0.00;90.80
36372;DHT22;22398;51.346;12.372;2024-03-08T01:02:38;0.00;91.00
36372;DHT22;22398;51.346;12.372;2024-03-08T01:07:40;0.00;91.20
36372;DHT22;22398;51.346;12.372;2024-03-08T01:12:42;0.00;91.40
36372;DHT22;22398;51.346;12.372;2024-03-08T01:17:45;-0.10;91.70
36372;DHT22;22398;51.346;12.372;2024-03-08T01:22:48;0.00;91.90
36372;DHT22;22398;51.346;12.372;2024-03-08T01:27:51;0.00;92.10
36372;DHT22;22398;51.346;12.372;2024-03-08T01:32:56;0.00;92.20
36372;DHT22;22398;51.346;12.372;2024-03-08T01:38:00;0.00;92.50
36372;DHT22;22398;51.346;12.372;2024-03-08T01:43:18;-0.10;92.60
36372;DHT22;22398;51.346;12.372;2024-03-08T01:48:23;-0.10;92.80
36372;DHT22;22398;51.346;12.372;2024-03-08T01:53:26;-0.20;93.00
36372;DHT22;22398;51.346;12.372;2024-03-08T01:58:30;-0.20;93.40
36372;DHT22;22398;51.346;12.372;2024-03-08T02:03:36;-0.20;93.50
36372;DHT22;22398;51.346;12.372;2024-03-08T02:08:39;-0.20;93.70
36372;DHT22;22398;51.346;12.372;2024-03-08T02:13:42;-0.20;93.90
36372;DHT22;22398;51.346;12.372;2024-03-08T02:18:46;-0.30;94.10
36372;DHT22;22398;51.346;12.372;2024-03-08T02:23:51;-0.40;94.30
36372;DHT22;22398;51.346;12.372;2024-03-08T02:28:55;-0.40;94.50
36372;DHT22;22398;51.346;12.372;2024-03-08T02:33:58;-0.30;95.00
36372;DHT22;22398;51.346;12.372;2024-03-08T02:39:03;-0.30;95.00
36372;DHT22;22398;51.346;12.372;2024-03-08T02:44:07;-0.30;95.30
36372;DHT22;22398;51.346;12.372;2024-03-08T02:49:10;-0.20;95.60
36372;DHT22;22398;51.346;12.372;2024-03-08T02:54:15;-0.30;95.70
36372;DHT22;22398;51.346;12.372;2024-03-08T02:59:19;-0.20;96.10
36372;DHT22;22398;51.346;12.372;2024-03-08T03:04:22;-0.10;96.20
36372;DHT22;22398;51.346;12.372;2024-03-08T03:09:27;-0.20;96.40
36372;DHT22;22398;51.346;12.372;2024-03-08T03:14:30;-0.20;96.30
36372;DHT22;22398;51.346;12.372;2024-03-08T03:19:34;-0.20;96.40
36372;DHT22;22398;51.346;12.372;2024-03-08T03:24:39;-0.30;96.60
36372;DHT22;22398;51.346;12.372;2024-03-08T03:29:44;-0.30;96.90
36372;DHT22;22398;51.346;12.372;2024-03-08T03:34:48;-0.20;97.10
36372;DHT22;22398;51.346;12.372;2024-03-08T03:39:56;-0.30;97.10
36372;DHT22;22398;51.346;12.372;2024-03-08T03:44:59;-0.30;97.40
36372;DHT22;22398;51.346;12.372;2024-03-08T03:50:06;-0.30;97.40
36372;DHT22;22398;51.346;12.372;2024-03-08T03:55:12;-0.40;97.40
36372;DHT22;22398;51.346;12.372;2024-03-08T04:00:16;-0.40;97.70
36372;DHT22;22398;51.346;12.372;2024-03-08T04:05:20;-0.50;97.70
36372;DHT22;22398;51.346;12.372;2024-03-08T04:10:24;-0.60;98.00
36372;DHT22;22398;51.346;12.372;2024-03-08T04:15:27;-0.60;98.10
36372;DHT22;22398;51.346;12.372;2024-03-08T04:20:31;-0.60;98.30
36372;DHT22;22398;51.346;12.372;2024-03-08T04:25:35;-0.60;98.80
36372;DHT22;22398;51.346;12.372;2024-03-08T04:30:38;-0.60;98.70
36372;DHT22;22398;51.346;12.372;2024-03-08T04:35:42;-0.60;98.90
36372;DHT22;22398;51.346;12.372;2024-03-08T04:40:49;-0.70;99.00
36372;DHT22;22398;51.346;12.372;2024-03-08T04:45:52;-0.70;99.30
36372;DHT22;22398;51.346;12.372;2024-03-08T04:50:56;-0.70;99.30
36372;DHT22;22398;51.346;12.372;2024-03-08T04:56:01;-0.70;99.60
36372;DHT22;22398;51.346;12.372;2024-03-08T05:01:08;-0.70;99.80
36372;DHT22;22398;51.346;12.372;2024-03-08T05:06:13;-0.70;99.90
36372;DHT22;22398;51.346;12.372;2024-03-08T05:11:17;-0.60;99.90
36372;DHT22;22398;51.346;12.372;2024-03-08T05:16:21;-0.70;99.90
36372;DHT22;22398;51.346;12.372;2024-03-08T05:21:26;-0.70;99.90
36372;DHT22;22398;51.346;12.372;2024-03-08T05:26:32;-0.70;99.90
36372;DHT22;22398;51.346;12.372;2024-03-08T05:31:42;-0.70;99.90
36372;DHT22;22398;51.346;12.372;2024-03-08T05:36:46;-0.70;99.90
36372;DHT22;22398;51.346;12.372;2024-03-08T05:41:52;-0.70;99.90
36372;DHT22;22398;51.346;12.372;2024-03-08T05:46:57;-0.70;99.90
36372;DHT22;22398;51.346;12.372;2024-03-08T05:52:00;-0.60;99.90
36372;DHT22;22398;51.346;12.372;2024-03-08T05:57:05;-0.50;99.90
36372;DHT22;22398;51.346;12.372;2024-03-08T06:02:08;-0.50;99.90
36372;DHT22;22398;51.346;12.372;2024-03-08T06:07:12;-0.40;99.90
36372;DHT22;22398;51.346;12.372;2024-03-08T06:12:16;-0.20;99.90
36372;DHT22;22398;51.346;12.372;2024-03-08T06:17:20;-0.20;99.90
36372;DHT22;22398;51.346;12.372;2024-03-08T06:22:27;-0.10;99.90
36372;DHT22;22398;51.346;12.372;2024-03-08T06:27:33;0.00;99.90
36372;DHT22;22398;51.346;12.372;2024-03-08T06:32:36;0.00;99.90
36372;DHT22;22398;51.346;12.372;2024-03-08T06:37:40;0.20;99.90
36372;DHT22;22398;51.346;12.372;2024-03-08T06:42:46;0.20;99.90
36372;DHT22;22398;51.346;12.372;2024-03-08T06:47:49;0.40;99.90
36372;DHT22;22398;51.346;12.372;2024-03-08T06:52:52;0.50;99.90
36372;DHT22;22398;51.346;12.372;2024-03-08T06:57:57;0.70;99.90
36372;DHT22;22398;51.346;12.372;2024-03-08T07:03:01;0.90;99.90
36372;DHT22;22398;51.346;12.372;2024-03-08T07:08:05;1.10;99.90
36372;DHT22;22398;51.346;12.372;2024-03-08T07:13:09;1.30;99.90
36372;DHT22;22398;51.346;12.372;2024-03-08T07:18:12;1.40;99.90
36372;DHT22;22398;51.346;12.372;2024-03-08T07:23:17;1.60;99.90
36372;DHT22;22398;51.346;12.372;2024-03-08T07:28:35;1.90;99.90
36372;DHT22;22398;51.346;12.372;2024-03-08T07:33:40;2.10;99.90
36372;DHT22;22398;51.346;12.372;2024-03-08T07:38:43;2.30;99.90
36372;DHT22;22398;51.346;12.372;2024-03-08T07:43:50;2.60;99.90
36372;DHT22;22398;51.346;12.372;2024-03-08T07:48:54;2.80;99.90
36372;DHT22;22398;51.346;12.372;2024-03-08T07:53:57;3.00;99.70
36372;DHT22;22398;51.346;12.372;2024-03-08T07:59:01;3.10;99.20
36372;DHT22;22398;51.346;12.372;2024-03-08T08:04:05;3.30;98.80
36372;DHT22;22398;51.346;12.372;2024-03-08T08:09:09;3.50;98.30
36372;DHT22;22398;51.346;12.372;2024-03-08T08:14:18;3.60;97.90
36372;DHT22;22398;51.346;12.372;2024-03-08T08:19:23;3.70;97.20
36372;DHT22;22398;51.346;12.372;2024-03-08T08:24:28;4.10;96.90
36372;DHT22;22398;51.346;12.372;2024-03-08T08:29:33;4.30;96.40
36372;DHT22;22398;51.346;12.372;2024-03-08T08:34:37;4.50;95.90
36372;DHT22;22398;51.346;12.372;2024-03-08T08:39:40;4.50;95.30
36372;DHT22;22398;51.346;12.372;2024-03-08T08:44:45;4.80;95.00
36372;DHT22;22398;51.346;12.372;2024-03-08T08:49:49;5.00;94.50
36372;DHT22;22398;51.346;12.372;2024-03-08T08:54:53;5.10;93.90
36372;DHT22;22398;51.346;12.372;2024-03-08T08:59:57;5.20;93.50
36372;DHT22;22398;51.346;12.372;2024-03-08T09:05:00;5.50;93.10
36372;DHT22;22398;51.346;12.372;2024-03-08T09:10:04;5.80;92.70
36372;DHT22;22398;51.346;12.372;2024-03-08T09:15:20;6.00;92.40
36372;DHT22;22398;51.346;12.372;2024-03-08T09:20:23;6.10;91.80
36372;DHT22;22398;51.346;12.372;2024-03-08T09:25:27;6.40;91.40
36372;DHT22;22398;51.346;12.372;2024-03-08T09:30:32;6.50;90.90
36372;DHT22;22398;51.346;12.372;2024-03-08T09:35:36;6.70;90.50
36372;DHT22;22398;51.346;12.372;2024-03-08T09:40:41;6.90;90.00
36372;DHT22;22398;51.346;12.372;2024-03-08T09:45:45;7.10;89.40
36372;DHT22;22398;51.346;12.372;2024-03-08T09:50:54;7.40;88.60
36372;DHT22;22398;51.346;12.372;2024-03-08T09:55:58;7.40;87.50
36372;DHT22;22398;51.346;12.372;2024-03-08T10:01:03;7.60;86.60
36372;DHT22;22398;51.346;12.372;2024-03-08T10:06:08;7.80;85.70
36372;DHT22;22398;51.346;12.372;2024-03-08T10:11:12;7.90;85.10
36372;DHT22;22398;51.346;12.372;2024-03-08T10:16:17;8.10;84.10
36372;DHT22;22398;51.346;12.372;2024-03-08T10:21:20;8.20;83.20
36372;DHT22;22398;51.346;12.372;2024-03-08T10:26:24;8.30;82.50
36372;DHT22;22398;51.346;12.372;2024-03-08T10:31:29;8.30;81.80
36372;DHT22;22398;51.346;12.372;2024-03-08T10:36:35;8.50;81.50
36372;DHT22;22398;51.346;12.372;2024-03-08T10:41:41;8.70;80.60
36372;DHT22;22398;51.346;12.372;2024-03-08T10:46:59;8.80;79.90
36372;DHT22;22398;51.346;12.372;2024-03-08T10:52:05;8.70;79.10
36372;DHT22;22398;51.346;12.372;2024-03-08T10:57:12;8.90;78.70
36372;DHT22;22398;51.346;12.372;2024-03-08T11:02:20;9.00;78.00
36372;DHT22;22398;51.346;12.372;2024-03-08T11:07:25;8.90;77.20
36372;DHT22;22398;51.346;12.372;2024-03-08T11:12:36;9.00;76.80
36372;DHT22;22398;51.346;12.372;2024-03-08T11:17:47;9.10;76.20
36372;DHT22;22398;51.346;12.372;2024-03-08T11:22:52;9.10;75.80
36372;DHT22;22398;51.346;12.372;2024-03-08T11:28:07;9.10;75.40
36372;DHT22;22398;51.346;12.372;2024-03-08T11:33:16;9.20;74.90
36372;DHT22;22398;51.346;12.372;2024-03-08T11:38:20;9.10;74.70
36372;DHT22;22398;51.346;12.372;2024-03-08T11:43:24;9.30;74.30
36372;DHT22;22398;51.346;12.372;2024-03-08T11:48:29;9.20;73.40
36372;DHT22;22398;51.346;12.372;2024-03-08T11:53:33;9.10;73.10
36372;DHT22;22398;51.346;12.372;2024-03-08T11:58:38;9.30;73.00
36372;DHT22;22398;51.346;12.372;2024-03-08T12:03:43;9.30;72.50
36372;DHT22;22398;51.346;12.372;2024-03-08T12:08:47;9.60;72.60
36372;DHT22;22398;51.346;12.372;2024-03-08T12:13:51;9.60;71.80
36372;DHT22;22398;51.346;12.372;2024-03-08T12:18:57;9.60;71.60
36372;DHT22;22398;51.346;12.372;2024-03-08T12:24:05;9.60;71.30
36372;DHT22;22398;51.346;12.372;2024-03-08T12:29:17;9.70;71.20
36372;DHT22;22398;51.346;12.372;2024-03-08T12:34:23;9.70;71.00
36372;DHT22;22398;51.346;12.372;2024-03-08T12:39:27;9.80;71.00
36372;DHT22;22398;51.346;12.372;2024-03-08T12:44:30;9.80;70.60
36372;DHT22;22398;51.346;12.372;2024-03-08T12:49:34;9.70;70.90
36372;DHT22;22398;51.346;12.372;2024-03-08T12:54:37;9.70;70.80
36372;DHT22;22398;51.346;12.372;2024-03-08T12:59:40;10.00;70.90
36372;DHT22;22398;51.346;12.372;2024-03-08T13:04:45;10.20;70.50
36372;DHT22;22398;51.346;12.372;2024-03-08T13:09:57;10.10;70.00
36372;DHT22;22398;51.346;12.372;2024-03-08T13:15:02;10.10;70.20
36372;DHT22;22398;51.346;12.372;2024-03-08T13:20:09;10.10;70.20
36372;DHT22;22398;51.346;12.372;2024-03-08T13:25:32;10.10;70.00
36372;DHT22;22398;51.346;12.372;2024-03-08T13:30:35;9.90;70.40
36372;DHT22;22398;51.346;12.372;2024-03-08T13:35:39;9.90;70.10
36372;DHT22;22398;51.346;12.372;2024-03-08T13:40:43;10.00;70.10
36372;DHT22;22398;51.346;12.372;2024-03-08T13:45:46;10.00;70.00
36372;DHT22;22398;51.346;12.372;2024-03-08T13:50:50;10.00;70.40
36372;DHT22;22398;51.346;12.372;2024-03-08T13:55:54;10.00;69.90
36372;DHT22;22398;51.346;12.372;2024-03-08T14:00:58;10.00;69.70
36372;DHT22;22398;51.346;12.372;2024-03-08T14:06:04;9.90;69.80
36372;DHT22;22398;51.346;12.372;2024-03-08T14:11:09;9.90;69.70
36372;DHT22;22398;51.346;12.372;2024-03-08T14:16:15;9.90;69.90
36372;DHT22;22398;51.346;12.372;2024-03-08T14:21:20;9.90;69.80
36372;DHT22;22398;51.346;12.372;2024-03-08T14:26:24;9.90;69.80
36372;DHT22;22398;51.346;12.372;2024-03-08T14:31:28;9.80;69.70
36372;DHT22;22398;51.346;12.372;2024-03-08T14:36:33;9.90;70.00
36372;DHT22;22398;51.346;12.372;2024-03-08T14:41:36;9.80;69.70
36372;DHT22;22398;51.346;12.372;2024-03-08T14:46:39;9.90;70.20
36372;DHT22;22398;51.346;12.372;2024-03-08T14:51:45;9.90;69.90
36372;DHT22;22398;51.346;12.372;2024-03-08T14:56:48;10.00;69.90
36372;DHT22;22398;51.346;12.372;2024-03-08T15:01:53;10.00;69.70
36372;DHT22;22398;51.346;12.372;2024-03-08T15:06:57;10.00;69.70
36372;DHT22;22398;51.346;12.372;2024-03-08T15:12:00;9.90;69.70
36372;DHT22;22398;51.346;12.372;2024-03-08T15:17:04;9.80;69.80
36372;DHT22;22398;51.346;12.372;2024-03-08T15:22:13;9.80;69.80
36372;DHT22;22398;51.346;12.372;2024-03-08T15:27:17;9.80;70.00
36372;DHT22;22398;51.346;12.372;2024-03-08T15:32:20;9.70;70.00
36372;DHT22;22398;51.346;12.372;2024-03-08T15:37:25;9.60;70.10
36372;DHT22;22398;51.346;12.372;2024-03-08T15:42:29;9.60;70.30
36372;DHT22;22398;51.346;12.372;2024-03-08T15:47:32;9.50;70.30
36372;DHT22;22398;51.346;12.372;2024-03-08T15:52:37;9.40;70.40
36372;DHT22;22398;51.346;12.372;2024-03-08T15:57:42;9.40;70.60
36372;DHT22;22398;51.346;12.372;2024-03-08T16:02:45;9.30;70.60
36372;DHT22;22398;51.346;12.372;2024-03-08T16:07:53;9.20;70.70
36372;DHT22;22398;51.346;12.372;2024-03-08T16:12:57;9.20;70.90
36372;DHT22;22398;51.346;12.372;2024-03-08T16:18:02;9.10;71.10
36372;DHT22;22398;51.346;12.372;2024-03-08T16:23:08;9.00;71.30
36372;DHT22;22398;51.346;12.372;2024-03-08T16:28:13;8.90;71.50
36372;DHT22;22398;51.346;12.372;2024-03-08T16:33:17;8.80;71.80
36372;DHT22;22398;51.346;12.372;2024-03-08T16:38:22;8.60;72.10
36372;DHT22;22398;51.346;12.372;2024-03-08T16:43:25;8.50;72.30
36372;DHT22;22398;51.346;12.372;2024-03-08T16:48:28;8.30;72.30
36372;DHT22;22398;51.346;12.372;2024-03-08T16:53:33;8.20;72.60
36372;DHT22;22398;51.346;12.372;2024-03-08T16:58:36;8.10;72.90
36372;DHT22;22398;51.346;12.372;2024-03-08T17:03:39;7.90;73.20
36372;DHT22;22398;51.346;12.372;2024-03-08T17:08:58;7.80;73.50
36372;DHT22;22398;51.346;12.372;2024-03-08T17:14:02;7.70;73.80
36372;DHT22;22398;51.346;12.372;2024-03-08T17:19:07;7.60;74.10
36372;DHT22;22398;51.346;12.372;2024-03-08T17:24:11;7.40;74.40
36372;DHT22;22398;51.346;12.372;2024-03-08T17:29:18;7.30;74.70
36372;DHT22;22398;51.346;12.372;2024-03-08T17:34:23;7.10;74.90
36372;DHT22;22398;51.346;12.372;2024-03-08T17:39:30;7.00;75.20
36372;DHT22;22398;51.346;12.372;2024-03-08T17:44:35;6.90;75.50
36372;DHT22;22398;51.346;12.372;2024-03-08T17:49:39;6.90;75.80
36372;DHT22;22398;51.346;12.372;2024-03-08T17:54:45;6.80;75.90
36372;DHT22;22398;51.346;12.372;2024-03-08T17:59:49;6.60;76.20
36372;DHT22;22398;51.346;12.372;2024-03-08T18:04:52;6.60;76.50
36372;DHT22;22398;51.346;12.372;2024-03-08T18:09:58;6.50;76.70
36372;DHT22;22398;51.346;12.372;2024-03-08T18:15:01;6.50;77.10
36372;DHT22;22398;51.346;12.372;2024-03-08T18:20:05;6.40;77.30
36372;DHT22;22398;51.346;12.372;2024-03-08T18:25:14;6.40;77.70
36372;DHT22;22398;51.346;12.372;2024-03-08T18:30:20;6.30;77.80
36372;DHT22;22398;51.346;12.372;2024-03-08T18:35:23;6.30;78.20
36372;DHT22;22398;51.346;12.372;2024-03-08T18:40:29;6.20;78.50
36372;DHT22;22398;51.346;12.372;2024-03-08T18:45:33;6.10;78.90
36372;DHT22;22398;51.346;12.372;2024-03-08T18:50:37;6.00;79.10
36372;DHT22;22398;51.346;12.372;2024-03-08T18:55:42;5.90;79.40
36372;DHT22;22398;51.346;12.372;2024-03-08T19:00:46;5.80;79.80
36372;DHT22;22398;51.346;12.372;2024-03-08T19:05:51;5.80;80.30
36372;DHT22;22398;51.346;12.372;2024-03-08T19:10:57;5.70;80.60
36372;DHT22;22398;51.346;12.372;2024-03-08T19:16:01;5.60;80.90
36372;DHT22;22398;51.346;12.372;2024-03-08T19:21:04;5.50;81.30
36372;DHT22;22398;51.346;12.372;2024-03-08T19:26:09;5.40;81.70
36372;DHT22;22398;51.346;12.372;2024-03-08T19:31:14;5.20;81.90
36372;DHT22;22398;51.346;12.372;2024-03-08T19:36:18;5.10;82.30
36372;DHT22;22398;51.346;12.372;2024-03-08T19:41:23;5.00;82.90
36372;DHT22;22398;51.346;12.372;2024-03-08T19:46:27;5.00;83.50
36372;DHT22;22398;51.346;12.372;2024-03-08T19:51:31;5.00;84.00
36372;DHT22;22398;51.346;12.372;2024-03-08T19:56:37;5.00;84.20
36372;DHT22;22398;51.346;12.372;2024-03-08T20:01:41;4.90;84.50
36372;DHT22;22398;51.346;12.372;2024-03-08T20:06:44;4.70;84.80
36372;DHT22;22398;51.346;12.372;2024-03-08T20:11:49;4.70;85.30
36372;DHT22;22398;51.346;12.372;2024-03-08T20:16:53;4.70;85.90
36372;DHT22;22398;51.346;12.372;2024-03-08T20:21:56;4.60;85.90
36372;DHT22;22398;51.346;12.372;2024-03-08T20:27:02;4.50;86.20
36372;DHT22;22398;51.346;12.372;2024-03-08T20:32:05;4.50;86.70
36372;DHT22;22398;51.346;12.372;2024-03-08T20:37:09;4.50;87.50
36372;DHT22;22398;51.346;12.372;2024-03-08T20:42:13;4.40;87.30
36372;DHT22;22398;51.346;12.372;2024-03-08T20:47:16;4.40;87.70
36372;DHT22;22398;51.346;12.372;2024-03-08T20:52:23;4.40;88.00
36372;DHT22;22398;51.346;12.372;2024-03-08T20:57:27;4.30;88.10
36372;DHT22;22398;51.346;12.372;2024-03-08T21:02:32;4.20;88.60
36372;DHT22;22398;51.346;12.372;2024-03-08T21:07:35;4.30;89.00
36372;DHT22;22398;51.346;12.372;2024-03-08T21:12:40;4.30;89.50
36372;DHT22;22398;51.346;12.372;2024-03-08T21:17:47;4.20;89.30
36372;DHT22;22398;51.346;12.372;2024-03-08T21:22:50;4.10;89.60
36372;DHT22;22398;51.346;12.372;2024-03-08T21:27:57;4.10;90.00
36372;DHT22;22398;51.346;12.372;2024-03-08T21:33:00;4.00;90.20
36372;DHT22;22398;51.346;12.372;2024-03-08T21:38:06;4.00;90.30
36372;DHT22;22398;51.346;12.372;2024-03-08T21:43:11;3.90;90.50
36372;DHT22;22398;51.346;12.372;2024-03-08T21:48:14;3.90;90.90
36372;DHT22;22398;51.346;12.372;2024-03-08T21:53:19;3.90;90.80
36372;DHT22;22398;51.346;12.372;2024-03-08T21:58:35;3.90;91.00
36372;DHT22;22398;51.346;12.372;2024-03-08T22:03:39;3.80;91.50
36372;DHT22;22398;51.346;12.372;2024-03-08T22:08:43;3.70;91.50
36372;DHT22;22398;51.346;12.372;2024-03-08T22:13:48;3.70;91.80
36372;DHT22;22398;51.346;12.372;2024-03-08T22:18:51;3.60;92.40
36372;DHT22;22398;51.346;12.372;2024-03-08T22:23:55;3.60;92.50
36372;DHT22;22398;51.346;12.372;2024-03-08T22:28:59;3.60;93.00
36372;DHT22;22398;51.346;12.372;2024-03-08T22:34:02;3.50;93.10
36372;DHT22;22398;51.346;12.372;2024-03-08T22:39:07;3.50;93.30
36372;DHT22;22398;51.346;12.372;2024-03-08T22:44:13;3.50;93.60
36372;DHT22;22398;51.346;12.372;2024-03-08T22:49:16;3.40;93.70
36372;DHT22;22398;51.346;12.372;2024-03-08T22:54:20;3.30;94.00
36372;DHT22;22398;51.346;12.372;2024-03-08T22:59:26;3.30;94.30
36372;DHT22;22398;51.346;12.372;2024-03-08T23:04:30;3.20;94.40
36372;DHT22;22398;51.346;12.372;2024-03-08T23:09:33;3.10;94.60
36372;DHT22;22398;51.346;12.372;2024-03-08T23:14:38;3.00;94.90
36372;DHT22;22398;51.346;12.372;2024-03-08T23:19:41;3.00;95.20
36372;DHT22;22398;51.346;12.372;2024-03-08T23:24:46;2.90;95.40
36372;DHT22;22398;51.346;12.372;2024-03-08T23:29:51;2.80;95.60
36372;DHT22;22398;51.346;12.372;2024-03-08T23:34:54;2.70;95.90
36372;DHT22;22398;51.346;12.372;2024-03-08T23:39:58;2.60;96.20
36372;DHT22;22398;51.346;12.372;2024-03-08T23:45:03;2.50;96.50
36372;DHT22;22398;51.346;12.372;2024-03-08T23:50:07;2.50;96.80
36372;DHT22;22398;51.346;12.372;2024-03-08T23:55:11;2.40;97.10
